sensor_id;sensor_type;location;lat;lon;timestamp;P1;durP1;ratioP1;P2;durP2;ratioP2
54452;SDS011;40363;52.270;10.546;2023-09-12T00:00:27;14.07;;;7.47;;
54452;SDS011;40363;52.270;10.546;2023-09-12T00:02:55;9.20;;;6.80;;
54452;SDS011;40363;52.270;10.546;2023-09-12T00:05:21;14.10;;;6.68;;
54452;SDS011;40363;52.270;10.546;2023-09-12T00:07:51;12.15;;;6.57;;
54452;SDS011;40363;52.270;10.546;2023-09-12T00:10:18;12.35;;;6.18;;
54452;SDS011;40363;52.270;10.546;2023-09-12T00:12:44;9.30;;;6.78;;
54452;SDS011;40363;52.270;10.546;2023-09-12T00:15:11;17.45;;;7.13;;
54452;SDS011;40363;52.270;10.546;2023-09-12T00:17:38;11.43;;;7.10;;
54452;SDS011;40363;52.270;10.546;2023-09-12T00:20:07;14.63;;;6.75;;
54452;SDS011;40363;52.270;10.546;2023-09-12T00:22:34;14.55;;;6.90;;
54452;SDS011;40363;52.270;10.546;2023-09-12T00:25:01;8.68;;;6.13;;
54452;SDS011;40363;52.270;10.546;2023-09-12T00:27:28;11.60;;;6.13;;
54452;SDS011;40363;52.270;10.546;2023-09-12T00:29:54;10.38;;;6.70;;
54452;SDS011;40363;52.270;10.546;2023-09-12T00:32:21;10.57;;;6.40;;
54452;SDS011;40363;52.270;10.546;2023-09-12T00:34:50;13.00;;;6.68;;
54452;SDS011;40363;52.270;10.546;2023-09-12T00:37:18;9.73;;;6.72;;
54452;SDS011;40363;52.270;10.546;2023-09-12T00:39:45;15.27;;;6.80;;
54452;SDS011;40363;52.270;10.546;2023-09-12T00:42:12;13.18;;;7.18;;
54452;SDS011;40363;52.270;10.546;2023-09-12T00:44:39;14.07;;;8.23;;
54452;SDS011;40363;52.270;10.546;2023-09-12T00:47:05;11.30;;;7.60;;
54452;SDS011;40363;52.270;10.546;2023-09-12T00:49:32;11.05;;;7.20;;
54452;SDS011;40363;52.270;10.546;2023-09-12T00:51:59;14.73;;;6.55;;
54452;SDS011;40363;52.270;10.546;2023-09-12T00:54:29;12.60;;;6.20;;
54452;SDS011;40363;52.270;10.546;2023-09-12T00:56:56;13.27;;;6.72;;
54452;SDS011;40363;52.270;10.546;2023-09-12T00:59:23;13.88;;;7.80;;
54452;SDS011;40363;52.270;10.546;2023-09-12T01:01:50;12.50;;;6.85;;
54452;SDS011;40363;52.270;10.546;2023-09-12T01:04:17;14.75;;;7.30;;
54452;SDS011;40363;52.270;10.546;2023-09-12T01:06:43;10.98;;;6.50;;
54452;SDS011;40363;52.270;10.546;2023-09-12T01:09:11;10.75;;;6.63;;
54452;SDS011;40363;52.270;10.546;2023-09-12T01:11:40;11.05;;;7.43;;
54452;SDS011;40363;52.270;10.546;2023-09-12T01:14:07;11.05;;;6.97;;
54452;SDS011;40363;52.270;10.546;2023-09-12T01:16:34;13.27;;;7.10;;
54452;SDS011;40363;52.270;10.546;2023-09-12T01:19:01;12.35;;;6.82;;
54452;SDS011;40363;52.270;10.546;2023-09-12T01:21:38;14.20;;;7.60;;
54452;SDS011;40363;52.270;10.546;2023-09-12T01:27:20;13.13;;;8.18;;
54452;SDS011;40363;52.270;10.546;2023-09-12T01:29:49;12.15;;;8.40;;
54452;SDS011;40363;52.270;10.546;2023-09-12T01:32:19;12.95;;;7.93;;
54452;SDS011;40363;52.270;10.546;2023-09-12T01:34:46;10.32;;;7.35;;
54452;SDS011;40363;52.270;10.546;2023-09-12T01:37:13;12.07;;;7.50;;
54452;SDS011;40363;52.270;10.546;2023-09-12T01:39:39;13.73;;;8.45;;
54452;SDS011;40363;52.270;10.546;2023-09-12T01:42:06;13.57;;;9.65;;
54452;SDS011;40363;52.270;10.546;2023-09-12T01:44:39;15.70;;;9.15;;
54452;SDS011;40363;52.270;10.546;2023-09-12T01:47:07;12.18;;;8.70;;
54452;SDS011;40363;52.270;10.546;2023-09-12T01:49:35;12.48;;;8.43;;
54452;SDS011;40363;52.270;10.546;2023-09-12T01:52:03;13.88;;;8.70;;
54452;SDS011;40363;52.270;10.546;2023-09-12T01:54:30;13.50;;;9.73;;
54452;SDS011;40363;52.270;10.546;2023-09-12T01:56:59;16.02;;;9.32;;
54452;SDS011;40363;52.270;10.546;2023-09-12T01:59:27;14.70;;;9.55;;
54452;SDS011;40363;52.270;10.546;2023-09-12T02:01:55;15.30;;;9.00;;
54452;SDS011;40363;52.270;10.546;2023-09-12T02:04:22;19.05;;;9.95;;
54452;SDS011;40363;52.270;10.546;2023-09-12T02:06:49;13.23;;;9.02;;
54452;SDS011;40363;52.270;10.546;2023-09-12T02:09:15;14.57;;;9.20;;
54452;SDS011;40363;52.270;10.546;2023-09-12T02:11:42;20.08;;;10.32;;
54452;SDS011;40363;52.270;10.546;2023-09-12T02:14:08;15.07;;;10.02;;
54452;SDS011;40363;52.270;10.546;2023-09-12T02:16:36;15.73;;;11.23;;
54452;SDS011;40363;52.270;10.546;2023-09-12T02:19:05;14.88;;;9.15;;
54452;SDS011;40363;52.270;10.546;2023-09-12T02:21:32;14.00;;;9.13;;
54452;SDS011;40363;52.270;10.546;2023-09-12T02:23:59;17.08;;;10.70;;
54452;SDS011;40363;52.270;10.546;2023-09-12T02:26:25;14.70;;;8.60;;
54452;SDS011;40363;52.270;10.546;2023-09-12T02:28:52;11.45;;;8.60;;
54452;SDS011;40363;52.270;10.546;2023-09-12T02:31:18;15.25;;;9.73;;
54452;SDS011;40363;52.270;10.546;2023-09-12T02:33:45;13.75;;;9.13;;
54452;SDS011;40363;52.270;10.546;2023-09-12T02:36:14;12.25;;;8.57;;
54452;SDS011;40363;52.270;10.546;2023-09-12T02:38:44;15.88;;;8.77;;
54452;SDS011;40363;52.270;10.546;2023-09-12T02:41:10;20.30;;;9.40;;
54452;SDS011;40363;52.270;10.546;2023-09-12T02:43:37;15.25;;;8.80;;
54452;SDS011;40363;52.270;10.546;2023-09-12T02:46:03;16.33;;;9.13;;
54452;SDS011;40363;52.270;10.546;2023-09-12T02:48:30;15.55;;;9.00;;
54452;SDS011;40363;52.270;10.546;2023-09-12T02:50:57;17.23;;;10.27;;
54452;SDS011;40363;52.270;10.546;2023-09-12T02:53:24;22.98;;;9.13;;
54452;SDS011;40363;52.270;10.546;2023-09-12T02:55:51;16.35;;;9.25;;
54452;SDS011;40363;52.270;10.546;2023-09-12T02:58:19;12.00;;;8.65;;
54452;SDS011;40363;52.270;10.546;2023-09-12T03:00:45;17.02;;;9.27;;
54452;SDS011;40363;52.270;10.546;2023-09-12T03:03:15;16.48;;;8.60;;
54452;SDS011;40363;52.270;10.546;2023-09-12T03:05:42;16.58;;;9.88;;
54452;SDS011;40363;52.270;10.546;2023-09-12T03:08:08;18.75;;;9.07;;
54452;SDS011;40363;52.270;10.546;2023-09-12T03:10:36;14.00;;;9.25;;
54452;SDS011;40363;52.270;10.546;2023-09-12T03:13:03;15.55;;;9.55;;
54452;SDS011;40363;52.270;10.546;2023-09-12T03:15:29;17.42;;;8.90;;
54452;SDS011;40363;52.270;10.546;2023-09-12T03:18:01;13.82;;;8.93;;
54452;SDS011;40363;52.270;10.546;2023-09-12T03:20:28;11.95;;;8.68;;
54452;SDS011;40363;52.270;10.546;2023-09-12T03:22:54;18.60;;;11.00;;
54452;SDS011;40363;52.270;10.546;2023-09-12T03:25:21;16.40;;;10.07;;
54452;SDS011;40363;52.270;10.546;2023-09-12T03:27:48;15.70;;;10.23;;
54452;SDS011;40363;52.270;10.546;2023-09-12T03:30:15;19.25;;;9.95;;
54452;SDS011;40363;52.270;10.546;2023-09-12T03:32:41;17.52;;;9.63;;
54452;SDS011;40363;52.270;10.546;2023-09-12T03:35:08;17.08;;;10.65;;
54452;SDS011;40363;52.270;10.546;2023-09-12T03:37:34;21.95;;;10.43;;
54452;SDS011;40363;52.270;10.546;2023-09-12T03:40:05;18.00;;;10.30;;
54452;SDS011;40363;52.270;10.546;2023-09-12T03:42:33;14.05;;;10.20;;
54452;SDS011;40363;52.270;10.546;2023-09-12T03:45:01;16.23;;;9.35;;
54452;SDS011;40363;52.270;10.546;2023-09-12T03:47:29;21.90;;;9.75;;
54452;SDS011;40363;52.270;10.546;2023-09-12T03:49:55;16.58;;;8.80;;
54452;SDS011;40363;52.270;10.546;2023-09-12T03:52:22;15.90;;;10.75;;
54452;SDS011;40363;52.270;10.546;2023-09-12T03:54:48;15.65;;;9.70;;
54452;SDS011;40363;52.270;10.546;2023-09-12T03:57:15;20.48;;;10.15;;
54452;SDS011;40363;52.270;10.546;2023-09-12T03:59:42;18.73;;;10.55;;
54452;SDS011;40363;52.270;10.546;2023-09-12T04:02:10;19.25;;;9.45;;
54452;SDS011;40363;52.270;10.546;2023-09-12T04:04:36;12.10;;;9.40;;
54452;SDS011;40363;52.270;10.546;2023-09-12T04:07:03;15.32;;;10.25;;
54452;SDS011;40363;52.270;10.546;2023-09-12T04:09:30;16.30;;;9.88;;
54452;SDS011;40363;52.270;10.546;2023-09-12T04:11:56;16.17;;;10.13;;
54452;SDS011;40363;52.270;10.546;2023-09-12T04:14:23;17.15;;;10.13;;
54452;SDS011;40363;52.270;10.546;2023-09-12T04:16:49;14.10;;;10.00;;
54452;SDS011;40363;52.270;10.546;2023-09-12T04:19:17;16.10;;;9.95;;
54452;SDS011;40363;52.270;10.546;2023-09-12T04:21:44;17.33;;;11.82;;
54452;SDS011;40363;52.270;10.546;2023-09-12T04:24:10;17.20;;;11.45;;
54452;SDS011;40363;52.270;10.546;2023-09-12T04:26:37;19.20;;;13.18;;
54452;SDS011;40363;52.270;10.546;2023-09-12T04:29:03;15.18;;;10.90;;
54452;SDS011;40363;52.270;10.546;2023-09-12T04:31:30;16.90;;;11.45;;
54452;SDS011;40363;52.270;10.546;2023-09-12T04:33:56;17.80;;;11.10;;
54452;SDS011;40363;52.270;10.546;2023-09-12T04:36:24;21.02;;;12.73;;
54452;SDS011;40363;52.270;10.546;2023-09-12T04:38:51;19.55;;;12.80;;
54452;SDS011;40363;52.270;10.546;2023-09-12T04:41:20;19.70;;;12.05;;
54452;SDS011;40363;52.270;10.546;2023-09-12T04:43:47;21.27;;;12.00;;
54452;SDS011;40363;52.270;10.546;2023-09-12T04:46:13;20.63;;;12.15;;
54452;SDS011;40363;52.270;10.546;2023-09-12T04:48:40;20.67;;;12.10;;
54452;SDS011;40363;52.270;10.546;2023-09-12T04:51:06;22.10;;;13.18;;
54452;SDS011;40363;52.270;10.546;2023-09-12T04:53:34;16.00;;;11.38;;
54452;SDS011;40363;52.270;10.546;2023-09-12T04:56:01;17.40;;;13.15;;
54452;SDS011;40363;52.270;10.546;2023-09-12T04:58:27;21.13;;;13.30;;
54452;SDS011;40363;52.270;10.546;2023-09-12T05:00:54;21.85;;;12.35;;
54452;SDS011;40363;52.270;10.546;2023-09-12T05:03:21;15.73;;;11.55;;
54452;SDS011;40363;52.270;10.546;2023-09-12T05:05:47;18.45;;;12.40;;
54452;SDS011;40363;52.270;10.546;2023-09-12T05:08:15;23.35;;;12.93;;
54452;SDS011;40363;52.270;10.546;2023-09-12T05:14:05;19.35;;;12.88;;
54452;SDS011;40363;52.270;10.546;2023-09-12T05:16:32;19.92;;;13.85;;
54452;SDS011;40363;52.270;10.546;2023-09-12T05:18:59;21.42;;;12.88;;
54452;SDS011;40363;52.270;10.546;2023-09-12T05:21:25;15.27;;;11.63;;
54452;SDS011;40363;52.270;10.546;2023-09-12T05:23:52;27.02;;;12.82;;
54452;SDS011;40363;52.270;10.546;2023-09-12T05:26:19;16.63;;;11.80;;
54452;SDS011;40363;52.270;10.546;2023-09-12T05:28:46;16.90;;;11.43;;
54452;SDS011;40363;52.270;10.546;2023-09-12T05:31:13;23.17;;;11.88;;
54452;SDS011;40363;52.270;10.546;2023-09-12T05:33:40;16.27;;;11.93;;
54452;SDS011;40363;52.270;10.546;2023-09-12T05:36:06;19.25;;;11.90;;
54452;SDS011;40363;52.270;10.546;2023-09-12T05:38:33;17.23;;;11.43;;
54452;SDS011;40363;52.270;10.546;2023-09-12T05:40:59;18.08;;;12.70;;
54452;SDS011;40363;52.270;10.546;2023-09-12T05:43:26;15.10;;;10.70;;
54452;SDS011;40363;52.270;10.546;2023-09-12T05:45:53;17.25;;;11.23;;
54452;SDS011;40363;52.270;10.546;2023-09-12T05:48:21;17.20;;;11.43;;
54452;SDS011;40363;52.270;10.546;2023-09-12T05:50:47;14.70;;;10.07;;
54452;SDS011;40363;52.270;10.546;2023-09-12T05:53:14;15.25;;;11.27;;
54452;SDS011;40363;52.270;10.546;2023-09-12T05:55:41;16.77;;;11.85;;
54452;SDS011;40363;52.270;10.546;2023-09-12T05:58:07;18.13;;;11.93;;
54452;SDS011;40363;52.270;10.546;2023-09-12T06:00:34;16.15;;;10.98;;
54452;SDS011;40363;52.270;10.546;2023-09-12T06:03:00;16.58;;;11.02;;
54452;SDS011;40363;52.270;10.546;2023-09-12T06:05:28;19.75;;;11.10;;
54452;SDS011;40363;52.270;10.546;2023-09-12T06:07:55;14.13;;;10.50;;
54452;SDS011;40363;52.270;10.546;2023-09-12T06:10:22;14.75;;;11.98;;
54452;SDS011;40363;52.270;10.546;2023-09-12T06:12:48;19.95;;;10.43;;
54452;SDS011;40363;52.270;10.546;2023-09-12T06:15:15;14.45;;;10.05;;
54452;SDS011;40363;52.270;10.546;2023-09-12T06:17:42;16.08;;;10.32;;
54452;SDS011;40363;52.270;10.546;2023-09-12T06:20:09;16.95;;;10.40;;
54452;SDS011;40363;52.270;10.546;2023-09-12T06:22:37;15.18;;;10.00;;
54452;SDS011;40363;52.270;10.546;2023-09-12T06:25:04;17.08;;;10.20;;
54452;SDS011;40363;52.270;10.546;2023-09-12T06:27:31;15.10;;;10.00;;
54452;SDS011;40363;52.270;10.546;2023-09-12T06:29:58;13.73;;;10.43;;
54452;SDS011;40363;52.270;10.546;2023-09-12T06:32:25;13.90;;;9.50;;
54452;SDS011;40363;52.270;10.546;2023-09-12T06:34:51;20.58;;;12.60;;
54452;SDS011;40363;52.270;10.546;2023-09-12T06:37:18;15.05;;;9.68;;
54452;SDS011;40363;52.270;10.546;2023-09-12T06:39:48;16.95;;;9.18;;
54452;SDS011;40363;52.270;10.546;2023-09-12T06:42:16;12.40;;;8.98;;
54452;SDS011;40363;52.270;10.546;2023-09-12T06:44:42;21.55;;;9.80;;
54452;SDS011;40363;52.270;10.546;2023-09-12T06:47:09;13.98;;;9.65;;
54452;SDS011;40363;52.270;10.546;2023-09-12T06:49:36;14.98;;;9.85;;
54452;SDS011;40363;52.270;10.546;2023-09-12T06:52:03;12.70;;;9.20;;
54452;SDS011;40363;52.270;10.546;2023-09-12T06:54:30;15.98;;;9.23;;
54452;SDS011;40363;52.270;10.546;2023-09-12T06:56:59;15.50;;;9.82;;
54452;SDS011;40363;52.270;10.546;2023-09-12T06:59:26;15.45;;;10.00;;
54452;SDS011;40363;52.270;10.546;2023-09-12T07:01:53;15.65;;;10.77;;
54452;SDS011;40363;52.270;10.546;2023-09-12T07:04:19;16.50;;;10.88;;
54452;SDS011;40363;52.270;10.546;2023-09-12T07:06:46;19.98;;;10.02;;
54452;SDS011;40363;52.270;10.546;2023-09-12T07:09:12;11.80;;;7.82;;
54452;SDS011;40363;52.270;10.546;2023-09-12T07:11:39;12.00;;;6.63;;
54452;SDS011;40363;52.270;10.546;2023-09-12T07:14:07;13.68;;;7.47;;
54452;SDS011;40363;52.270;10.546;2023-09-12T07:16:35;13.20;;;7.35;;
54452;SDS011;40363;52.270;10.546;2023-09-12T07:19:01;11.98;;;8.20;;
54452;SDS011;40363;52.270;10.546;2023-09-12T07:21:28;13.25;;;7.95;;
54452;SDS011;40363;52.270;10.546;2023-09-12T07:23:55;16.25;;;9.40;;
54452;SDS011;40363;52.270;10.546;2023-09-12T07:26:22;13.93;;;8.30;;
54452;SDS011;40363;52.270;10.546;2023-09-12T07:28:48;15.02;;;8.85;;
54452;SDS011;40363;52.270;10.546;2023-09-12T07:31:16;14.80;;;8.80;;
54452;SDS011;40363;52.270;10.546;2023-09-12T07:33:44;16.30;;;9.00;;
54452;SDS011;40363;52.270;10.546;2023-09-12T07:36:10;13.77;;;8.20;;
54452;SDS011;40363;52.270;10.546;2023-09-12T07:38:37;15.30;;;8.57;;
54452;SDS011;40363;52.270;10.546;2023-09-12T07:41:04;13.07;;;7.80;;
54452;SDS011;40363;52.270;10.546;2023-09-12T07:43:31;12.48;;;7.40;;
54452;SDS011;40363;52.270;10.546;2023-09-12T07:45:58;13.15;;;8.23;;
54452;SDS011;40363;52.270;10.546;2023-09-12T07:48:25;12.88;;;6.20;;
54452;SDS011;40363;52.270;10.546;2023-09-12T07:50:52;11.65;;;7.18;;
54452;SDS011;40363;52.270;10.546;2023-09-12T07:53:20;9.13;;;5.55;;
54452;SDS011;40363;52.270;10.546;2023-09-12T07:55:47;10.00;;;5.93;;
54452;SDS011;40363;52.270;10.546;2023-09-12T07:58:14;12.45;;;6.72;;
54452;SDS011;40363;52.270;10.546;2023-09-12T08:00:43;12.30;;;6.45;;
54452;SDS011;40363;52.270;10.546;2023-09-12T08:03:09;13.07;;;6.47;;
54452;SDS011;40363;52.270;10.546;2023-09-12T08:05:38;11.82;;;6.03;;
54452;SDS011;40363;52.270;10.546;2023-09-12T08:08:04;12.07;;;5.70;;
54452;SDS011;40363;52.270;10.546;2023-09-12T08:10:31;12.27;;;5.85;;
54452;SDS011;40363;52.270;10.546;2023-09-12T08:12:58;7.03;;;5.18;;
54452;SDS011;40363;52.270;10.546;2023-09-12T08:15:24;10.32;;;5.75;;
54452;SDS011;40363;52.270;10.546;2023-09-12T08:17:51;9.90;;;6.03;;
54452;SDS011;40363;52.270;10.546;2023-09-12T08:20:18;8.32;;;5.22;;
54452;SDS011;40363;52.270;10.546;2023-09-12T08:22:47;8.57;;;6.15;;
54452;SDS011;40363;52.270;10.546;2023-09-12T08:25:14;6.00;;;4.55;;
54452;SDS011;40363;52.270;10.546;2023-09-12T08:27:40;6.22;;;4.22;;
54452;SDS011;40363;52.270;10.546;2023-09-12T08:30:09;6.38;;;4.88;;
54452;SDS011;40363;52.270;10.546;2023-09-12T08:32:37;6.55;;;3.83;;
54452;SDS011;40363;52.270;10.546;2023-09-12T08:35:05;7.85;;;4.10;;
54452;SDS011;40363;52.270;10.546;2023-09-12T08:37:32;9.07;;;3.90;;
54452;SDS011;40363;52.270;10.546;2023-09-12T08:40:00;10.77;;;4.60;;
54452;SDS011;40363;52.270;10.546;2023-09-12T08:42:27;8.35;;;4.55;;
54452;SDS011;40363;52.270;10.546;2023-09-12T08:44:57;6.90;;;3.67;;
54452;SDS011;40363;52.270;10.546;2023-09-12T08:47:23;5.53;;;3.85;;
54452;SDS011;40363;52.270;10.546;2023-09-12T08:49:52;9.30;;;5.03;;
54452;SDS011;40363;52.270;10.546;2023-09-12T08:52:20;7.07;;;4.80;;
54452;SDS011;40363;52.270;10.546;2023-09-12T08:54:46;7.38;;;4.72;;
54452;SDS011;40363;52.270;10.546;2023-09-12T08:57:14;5.38;;;3.92;;
54452;SDS011;40363;52.270;10.546;2023-09-12T08:59:42;6.00;;;3.90;;
54452;SDS011;40363;52.270;10.546;2023-09-12T09:02:12;4.70;;;4.07;;
54452;SDS011;40363;52.270;10.546;2023-09-12T09:04:40;10.02;;;4.80;;
54452;SDS011;40363;52.270;10.546;2023-09-12T09:07:09;7.75;;;4.70;;
54452;SDS011;40363;52.270;10.546;2023-09-12T09:09:38;6.13;;;4.90;;
54452;SDS011;40363;52.270;10.546;2023-09-12T09:12:06;6.50;;;4.68;;
54452;SDS011;40363;52.270;10.546;2023-09-12T09:14:34;8.70;;;4.57;;
54452;SDS011;40363;52.270;10.546;2023-09-12T09:17:01;6.80;;;4.63;;
54452;SDS011;40363;52.270;10.546;2023-09-12T09:19:39;6.43;;;4.50;;
54452;SDS011;40363;52.270;10.546;2023-09-12T09:22:06;7.57;;;5.07;;
54452;SDS011;40363;52.270;10.546;2023-09-12T09:24:33;8.18;;;4.55;;
54452;SDS011;40363;52.270;10.546;2023-09-12T09:27:00;6.97;;;4.45;;
54452;SDS011;40363;52.270;10.546;2023-09-12T09:29:27;8.93;;;4.40;;
54452;SDS011;40363;52.270;10.546;2023-09-12T09:31:58;6.80;;;4.43;;
54452;SDS011;40363;52.270;10.546;2023-09-12T09:34:26;9.48;;;5.22;;
54452;SDS011;40363;52.270;10.546;2023-09-12T09:36:55;6.57;;;5.55;;
54452;SDS011;40363;52.270;10.546;2023-09-12T09:39:23;7.47;;;4.85;;
54452;SDS011;40363;52.270;10.546;2023-09-12T09:41:50;9.23;;;5.35;;
54452;SDS011;40363;52.270;10.546;2023-09-12T09:44:18;8.88;;;5.68;;
54452;SDS011;40363;52.270;10.546;2023-09-12T09:46:46;10.30;;;5.55;;
54452;SDS011;40363;52.270;10.546;2023-09-12T09:49:19;8.00;;;4.78;;
54452;SDS011;40363;52.270;10.546;2023-09-12T09:51:46;7.38;;;5.45;;
54452;SDS011;40363;52.270;10.546;2023-09-12T09:54:14;9.05;;;4.93;;
54452;SDS011;40363;52.270;10.546;2023-09-12T09:56:47;7.25;;;4.50;;
54452;SDS011;40363;52.270;10.546;2023-09-12T09:59:14;5.22;;;3.92;;
54452;SDS011;40363;52.270;10.546;2023-09-12T10:01:41;8.60;;;4.82;;
54452;SDS011;40363;52.270;10.546;2023-09-12T10:04:09;5.35;;;3.88;;
54452;SDS011;40363;52.270;10.546;2023-09-12T10:06:37;8.48;;;5.45;;
54452;SDS011;40363;52.270;10.546;2023-09-12T10:09:05;4.88;;;3.50;;
54452;SDS011;40363;52.270;10.546;2023-09-12T10:11:34;6.25;;;3.70;;
54452;SDS011;40363;52.270;10.546;2023-09-12T10:14:02;7.35;;;4.22;;
54452;SDS011;40363;52.270;10.546;2023-09-12T10:16:31;10.18;;;3.75;;
54452;SDS011;40363;52.270;10.546;2023-09-12T10:18:59;5.13;;;3.72;;
54452;SDS011;40363;52.270;10.546;2023-09-12T10:21:35;5.68;;;4.18;;
54452;SDS011;40363;52.270;10.546;2023-09-12T10:24:04;7.97;;;4.82;;
54452;SDS011;40363;52.270;10.546;2023-09-12T10:26:33;6.53;;;3.80;;
54452;SDS011;40363;52.270;10.546;2023-09-12T10:29:01;10.30;;;4.78;;
54452;SDS011;40363;52.270;10.546;2023-09-12T10:31:28;5.90;;;4.10;;
54452;SDS011;40363;52.270;10.546;2023-09-12T10:33:55;6.88;;;4.57;;
54452;SDS011;40363;52.270;10.546;2023-09-12T10:36:24;7.43;;;4.68;;
54452;SDS011;40363;52.270;10.546;2023-09-12T10:38:52;6.10;;;4.15;;
54452;SDS011;40363;52.270;10.546;2023-09-12T10:41:22;5.03;;;3.85;;
54452;SDS011;40363;52.270;10.546;2023-09-12T10:43:50;9.32;;;4.03;;
54452;SDS011;40363;52.270;10.546;2023-09-12T10:46:19;7.10;;;4.53;;
54452;SDS011;40363;52.270;10.546;2023-09-12T10:48:46;6.25;;;4.22;;
54452;SDS011;40363;52.270;10.546;2023-09-12T10:51:13;8.27;;;4.40;;
54452;SDS011;40363;52.270;10.546;2023-09-12T10:53:46;6.75;;;4.35;;
54452;SDS011;40363;52.270;10.546;2023-09-12T10:56:15;7.05;;;4.18;;
54452;SDS011;40363;52.270;10.546;2023-09-12T11:01:40;7.90;;;4.55;;
54452;SDS011;40363;52.270;10.546;2023-09-12T11:10:19;6.95;;;5.05;;
54452;SDS011;40363;52.270;10.546;2023-09-12T11:12:47;6.15;;;4.03;;
54452;SDS011;40363;52.270;10.546;2023-09-12T11:15:17;6.07;;;4.15;;
54452;SDS011;40363;52.270;10.546;2023-09-12T11:17:45;6.95;;;4.65;;
54452;SDS011;40363;52.270;10.546;2023-09-12T11:20:12;6.20;;;4.10;;
54452;SDS011;40363;52.270;10.546;2023-09-12T11:22:41;7.00;;;4.47;;
54452;SDS011;40363;52.270;10.546;2023-09-12T11:25:18;9.57;;;5.00;;
54452;SDS011;40363;52.270;10.546;2023-09-12T11:28:01;4.70;;;4.18;;
54452;SDS011;40363;52.270;10.546;2023-09-12T11:30:30;6.68;;;4.47;;
54452;SDS011;40363;52.270;10.546;2023-09-12T11:32:59;7.28;;;4.57;;
54452;SDS011;40363;52.270;10.546;2023-09-12T11:35:26;5.93;;;4.38;;
54452;SDS011;40363;52.270;10.546;2023-09-12T11:37:55;5.80;;;4.53;;
54452;SDS011;40363;52.270;10.546;2023-09-12T11:40:23;8.52;;;4.35;;
54452;SDS011;40363;52.270;10.546;2023-09-12T11:42:50;6.78;;;4.38;;
54452;SDS011;40363;52.270;10.546;2023-09-12T11:45:17;8.48;;;4.40;;
54452;SDS011;40363;52.270;10.546;2023-09-12T11:47:46;12.93;;;5.93;;
54452;SDS011;40363;52.270;10.546;2023-09-12T11:50:26;8.25;;;5.43;;
54452;SDS011;40363;52.270;10.546;2023-09-12T11:53:00;7.97;;;5.65;;
54452;SDS011;40363;52.270;10.546;2023-09-12T11:55:30;8.30;;;5.30;;
54452;SDS011;40363;52.270;10.546;2023-09-12T11:57:57;10.32;;;5.30;;
54452;SDS011;40363;52.270;10.546;2023-09-12T12:00:23;8.13;;;5.53;;
54452;SDS011;40363;52.270;10.546;2023-09-12T12:02:54;7.63;;;5.30;;
54452;SDS011;40363;52.270;10.546;2023-09-12T12:05:21;9.15;;;5.95;;
54452;SDS011;40363;52.270;10.546;2023-09-12T12:07:48;10.38;;;5.90;;
54452;SDS011;40363;52.270;10.546;2023-09-12T12:10:16;7.63;;;6.68;;
54452;SDS011;40363;52.270;10.546;2023-09-12T12:12:43;6.90;;;5.10;;
54452;SDS011;40363;52.270;10.546;2023-09-12T12:15:10;8.35;;;5.97;;
54452;SDS011;40363;52.270;10.546;2023-09-12T12:17:37;11.32;;;6.07;;
54452;SDS011;40363;52.270;10.546;2023-09-12T12:20:08;7.10;;;5.10;;
54452;SDS011;40363;52.270;10.546;2023-09-12T12:22:36;8.15;;;6.18;;
54452;SDS011;40363;52.270;10.546;2023-09-12T12:25:06;7.55;;;5.78;;
54452;SDS011;40363;52.270;10.546;2023-09-12T12:27:35;10.27;;;6.18;;
54452;SDS011;40363;52.270;10.546;2023-09-12T12:30:02;9.50;;;6.53;;
54452;SDS011;40363;52.270;10.546;2023-09-12T12:32:30;10.73;;;6.28;;
54452;SDS011;40363;52.270;10.546;2023-09-12T12:34:56;8.00;;;5.15;;
54452;SDS011;40363;52.270;10.546;2023-09-12T12:37:27;11.60;;;5.90;;
54452;SDS011;40363;52.270;10.546;2023-09-12T12:39:56;7.53;;;6.32;;
54452;SDS011;40363;52.270;10.546;2023-09-12T12:42:23;8.13;;;5.88;;
54452;SDS011;40363;52.270;10.546;2023-09-12T12:44:52;8.77;;;5.97;;
54452;SDS011;40363;52.270;10.546;2023-09-12T12:47:19;9.25;;;5.13;;
54452;SDS011;40363;52.270;10.546;2023-09-12T12:49:50;6.25;;;4.60;;
54452;SDS011;40363;52.270;10.546;2023-09-12T12:52:21;6.53;;;4.55;;
54452;SDS011;40363;52.270;10.546;2023-09-12T12:54:50;6.13;;;4.88;;
54452;SDS011;40363;52.270;10.546;2023-09-12T12:57:19;4.97;;;3.88;;
54452;SDS011;40363;52.270;10.546;2023-09-12T12:59:46;5.47;;;3.85;;
54452;SDS011;40363;52.270;10.546;2023-09-12T13:02:13;5.15;;;3.70;;
54452;SDS011;40363;52.270;10.546;2023-09-12T13:04:39;7.75;;;4.15;;
54452;SDS011;40363;52.270;10.546;2023-09-12T13:07:06;5.75;;;3.88;;
54452;SDS011;40363;52.270;10.546;2023-09-12T13:09:32;5.60;;;3.65;;
54452;SDS011;40363;52.270;10.546;2023-09-12T13:12:00;5.40;;;3.80;;
54452;SDS011;40363;52.270;10.546;2023-09-12T13:14:27;6.03;;;4.07;;
54452;SDS011;40363;52.270;10.546;2023-09-12T13:16:56;6.55;;;3.90;;
54452;SDS011;40363;52.270;10.546;2023-09-12T13:19:23;4.65;;;3.55;;
54452;SDS011;40363;52.270;10.546;2023-09-12T13:21:49;4.82;;;3.50;;
54452;SDS011;40363;52.270;10.546;2023-09-12T13:24:16;8.38;;;3.53;;
54452;SDS011;40363;52.270;10.546;2023-09-12T13:26:43;5.32;;;4.05;;
54452;SDS011;40363;52.270;10.546;2023-09-12T13:29:10;7.75;;;4.43;;
54452;SDS011;40363;52.270;10.546;2023-09-12T13:31:37;7.13;;;4.38;;
54452;SDS011;40363;52.270;10.546;2023-09-12T13:34:04;7.82;;;4.75;;
54452;SDS011;40363;52.270;10.546;2023-09-12T13:36:30;7.40;;;4.53;;
54452;SDS011;40363;52.270;10.546;2023-09-12T13:38:57;6.63;;;5.00;;
54452;SDS011;40363;52.270;10.546;2023-09-12T13:41:23;6.45;;;4.88;;
54452;SDS011;40363;52.270;10.546;2023-09-12T13:43:50;7.63;;;4.70;;
54452;SDS011;40363;52.270;10.546;2023-09-12T13:46:18;7.15;;;4.70;;
54452;SDS011;40363;52.270;10.546;2023-09-12T13:48:45;6.40;;;4.32;;
54452;SDS011;40363;52.270;10.546;2023-09-12T13:51:11;5.25;;;4.40;;
54452;SDS011;40363;52.270;10.546;2023-09-12T13:53:38;5.88;;;4.13;;
54452;SDS011;40363;52.270;10.546;2023-09-12T13:56:04;7.70;;;4.20;;
54452;SDS011;40363;52.270;10.546;2023-09-12T13:58:31;8.63;;;4.45;;
54452;SDS011;40363;52.270;10.546;2023-09-12T14:00:58;4.80;;;3.50;;
54452;SDS011;40363;52.270;10.546;2023-09-12T14:03:26;7.15;;;3.92;;
54452;SDS011;40363;52.270;10.546;2023-09-12T14:05:53;5.13;;;4.03;;
54452;SDS011;40363;52.270;10.546;2023-09-12T14:08:19;6.82;;;4.38;;
54452;SDS011;40363;52.270;10.546;2023-09-12T14:10:46;5.05;;;4.00;;
54452;SDS011;40363;52.270;10.546;2023-09-12T14:13:13;6.35;;;4.20;;
54452;SDS011;40363;52.270;10.546;2023-09-12T14:15:40;5.60;;;4.40;;
54452;SDS011;40363;52.270;10.546;2023-09-12T14:18:06;8.95;;;5.30;;
54452;SDS011;40363;52.270;10.546;2023-09-12T14:20:34;8.27;;;4.40;;
54452;SDS011;40363;52.270;10.546;2023-09-12T14:23:01;5.35;;;4.10;;
54452;SDS011;40363;52.270;10.546;2023-09-12T14:25:28;7.13;;;4.20;;
54452;SDS011;40363;52.270;10.546;2023-09-12T14:27:55;5.38;;;3.90;;
54452;SDS011;40363;52.270;10.546;2023-09-12T14:30:21;4.00;;;3.05;;
54452;SDS011;40363;52.270;10.546;2023-09-12T14:32:51;6.95;;;4.20;;
54452;SDS011;40363;52.270;10.546;2023-09-12T14:35:17;4.70;;;3.53;;
54452;SDS011;40363;52.270;10.546;2023-09-12T14:37:45;5.57;;;4.03;;
54452;SDS011;40363;52.270;10.546;2023-09-12T14:40:14;5.68;;;3.78;;